sensor_id;sensor_type;location;lat;lon;timestamp;temperature;humidity
27439;DHT22;14887;51.252;7.470;2023-06-22T00:02:09;20.40;1.00
27439;DHT22;14887;51.252;7.470;2023-06-22T00:04:34;20.40;1.00
27439;DHT22;14887;51.252;7.470;2023-06-22T00:07:00;20.40;1.00
27439;DHT22;14887;51.252;7.470;2023-06-22T00:09:25;20.30;1.00
27439;DHT22;14887;51.252;7.470;2023-06-22T00:11:52;20.30;1.00
27439;DHT22;14887;51.252;7.470;2023-06-22T00:14:17;20.30;1.00
27439;DHT22;14887;51.252;7.470;2023-06-22T00:16:43;20.30;1.00
27439;DHT22;14887;51.252;7.470;2023-06-22T00:19:08;20.30;99.90
27439;DHT22;14887;51.252;7.470;2023-06-22T00:21:37;20.30;99.90
27439;DHT22;14887;51.252;7.470;2023-06-22T00:24:03;20.30;99.90
27439;DHT22;14887;51.252;7.470;2023-06-22T00:26:29;20.30;99.90
27439;DHT22;14887;51.252;7.470;2023-06-22T00:28:55;20.30;99.90
27439;DHT22;14887;51.252;7.470;2023-06-22T00:31:21;20.30;99.90
27439;DHT22;14887;51.252;7.470;2023-06-22T00:33:46;20.40;99.90
27439;DHT22;14887;51.252;7.470;2023-06-22T00:36:12;20.40;99.90
27439;DHT22;14887;51.252;7.470;2023-06-22T00:38:41;20.40;99.90
27439;DHT22;14887;51.252;7.470;2023-06-22T00:41:07;20.40;99.90
27439;DHT22;14887;51.252;7.470;2023-06-22T00:43:32;20.30;99.90
27439;DHT22;14887;51.252;7.470;2023-06-22T00:45:58;20.40;99.90
27439;DHT22;14887;51.252;7.470;2023-06-22T00:48:24;20.40;99.90
27439;DHT22;14887;51.252;7.470;2023-06-22T00:50:50;20.30;99.90
27439;DHT22;14887;51.252;7.470;2023-06-22T00:53:19;20.30;99.90
27439;DHT22;14887;51.252;7.470;2023-06-22T00:55:45;20.40;99.90
27439;DHT22;14887;51.252;7.470;2023-06-22T00:58:13;20.40;99.90
27439;DHT22;14887;51.252;7.470;2023-06-22T01:00:41;20.30;99.90
27439;DHT22;14887;51.252;7.470;2023-06-22T01:03:08;20.40;99.90
27439;DHT22;14887;51.252;7.470;2023-06-22T01:05:34;20.40;99.90
27439;DHT22;14887;51.252;7.470;2023-06-22T01:11:10;20.40;99.90
27439;DHT22;14887;51.252;7.470;2023-06-22T01:13:54;20.30;99.90
27439;DHT22;14887;51.252;7.470;2023-06-22T01:16:35;20.30;99.90
27439;DHT22;14887;51.252;7.470;2023-06-22T01:21:51;20.20;1.00
27439;DHT22;14887;51.252;7.470;2023-06-22T01:24:33;20.20;99.90
27439;DHT22;14887;51.252;7.470;2023-06-22T01:30:08;20.10;1.00
27439;DHT22;14887;51.252;7.470;2023-06-22T01:32:38;20.10;1.00
27439;DHT22;14887;51.252;7.470;2023-06-22T01:35:06;20.10;1.00
27439;DHT22;14887;51.252;7.470;2023-06-22T01:37:34;20.00;1.00
27439;DHT22;14887;51.252;7.470;2023-06-22T01:40:00;20.00;1.00
27439;DHT22;14887;51.252;7.470;2023-06-22T01:42:26;19.90;1.00
27439;DHT22;14887;51.252;7.470;2023-06-22T01:44:53;19.90;1.00
27439;DHT22;14887;51.252;7.470;2023-06-22T01:47:20;19.90;1.00
27439;DHT22;14887;51.252;7.470;2023-06-22T01:49:47;19.90;95.90
27439;DHT22;14887;51.252;7.470;2023-06-22T01:52:13;19.90;1.00
27439;DHT22;14887;51.252;7.470;2023-06-22T01:54:39;19.90;26.00
27439;DHT22;14887;51.252;7.470;2023-06-22T01:57:06;19.90;1.00
27439;DHT22;14887;51.252;7.470;2023-06-22T01:59:36;19.90;99.90
27439;DHT22;14887;51.252;7.470;2023-06-22T02:02:06;19.90;99.90
27439;DHT22;14887;51.252;7.470;2023-06-22T02:04:57;19.90;1.00
27439;DHT22;14887;51.252;7.470;2023-06-22T02:07:28;19.90;13.30
27439;DHT22;14887;51.252;7.470;2023-06-22T02:09:55;19.90;28.60
27439;DHT22;14887;51.252;7.470;2023-06-22T02:12:24;19.90;99.90
27439;DHT22;14887;51.252;7.470;2023-06-22T02:14:51;19.80;99.90
27439;DHT22;14887;51.252;7.470;2023-06-22T02:17:18;19.80;99.90
27439;DHT22;14887;51.252;7.470;2023-06-22T02:19:43;19.80;99.90
27439;DHT22;14887;51.252;7.470;2023-06-22T02:22:09;19.80;99.90
27439;DHT22;14887;51.252;7.470;2023-06-22T02:24:35;19.70;99.90
27439;DHT22;14887;51.252;7.470;2023-06-22T02:27:01;19.70;99.90
27439;DHT22;14887;51.252;7.470;2023-06-22T02:29:27;19.60;1.00
27439;DHT22;14887;51.252;7.470;2023-06-22T02:31:54;19.60;99.90
27439;DHT22;14887;51.252;7.470;2023-06-22T02:34:21;19.60;1.00
27439;DHT22;14887;51.252;7.470;2023-06-22T02:36:47;19.50;1.00
27439;DHT22;14887;51.252;7.470;2023-06-22T02:39:20;19.50;1.00
27439;DHT22;14887;51.252;7.470;2023-06-22T02:41:50;19.50;1.00
27439;DHT22;14887;51.252;7.470;2023-06-22T02:44:17;19.50;1.00
27439;DHT22;14887;51.252;7.470;2023-06-22T02:46:43;19.50;1.00
27439;DHT22;14887;51.252;7.470;2023-06-22T02:49:09;19.50;1.00
27439;DHT22;14887;51.252;7.470;2023-06-22T02:51:35;19.60;1.00
27439;DHT22;14887;51.252;7.470;2023-06-22T02:54:01;19.50;1.00
27439;DHT22;14887;51.252;7.470;2023-06-22T02:56:28;19.50;1.00
27439;DHT22;14887;51.252;7.470;2023-06-22T02:58:53;19.40;1.00
27439;DHT22;14887;51.252;7.470;2023-06-22T03:01:19;19.40;1.00
27439;DHT22;14887;51.252;7.470;2023-06-22T03:03:49;19.40;1.00
27439;DHT22;14887;51.252;7.470;2023-06-22T03:06:15;19.30;53.80
27439;DHT22;14887;51.252;7.470;2023-06-22T03:08:40;19.30;99.90
27439;DHT22;14887;51.252;7.470;2023-06-22T03:11:07;19.30;99.90
27439;DHT22;14887;51.252;7.470;2023-06-22T03:13:33;19.30;99.90
27439;DHT22;14887;51.252;7.470;2023-06-22T03:15:58;19.30;99.90
27439;DHT22;14887;51.252;7.470;2023-06-22T03:18:24;19.20;99.90
27439;DHT22;14887;51.252;7.470;2023-06-22T03:20:50;19.20;99.90
27439;DHT22;14887;51.252;7.470;2023-06-22T03:23:15;19.20;99.90
27439;DHT22;14887;51.252;7.470;2023-06-22T03:25:42;19.20;1.00
27439;DHT22;14887;51.252;7.470;2023-06-22T03:28:10;19.10;1.00
27439;DHT22;14887;51.252;7.470;2023-06-22T03:30:35;19.10;1.00
27439;DHT22;14887;51.252;7.470;2023-06-22T03:33:01;19.10;99.90
27439;DHT22;14887;51.252;7.470;2023-06-22T03:35:26;19.10;99.90
27439;DHT22;14887;51.252;7.470;2023-06-22T03:37:52;19.20;1.00
27439;DHT22;14887;51.252;7.470;2023-06-22T03:40:18;19.30;1.00
27439;DHT22;14887;51.252;7.470;2023-06-22T03:42:43;19.30;99.90
27439;DHT22;14887;51.252;7.470;2023-06-22T03:45:09;19.30;13.10
27439;DHT22;14887;51.252;7.470;2023-06-22T03:47:35;19.30;1.00
27439;DHT22;14887;51.252;7.470;2023-06-22T03:50:00;19.40;98.60
27439;DHT22;14887;51.252;7.470;2023-06-22T03:52:29;19.40;35.10
27439;DHT22;14887;51.252;7.470;2023-06-22T03:54:55;19.50;1.00
27439;DHT22;14887;51.252;7.470;2023-06-22T03:57:20;19.50;1.00
27439;DHT22;14887;51.252;7.470;2023-06-22T03:59:46;19.50;1.00
27439;DHT22;14887;51.252;7.470;2023-06-22T04:02:12;19.50;1.00
27439;DHT22;14887;51.252;7.470;2023-06-22T04:04:37;19.60;99.90
27439;DHT22;14887;51.252;7.470;2023-06-22T04:07:04;19.50;1.00
27439;DHT22;14887;51.252;7.470;2023-06-22T04:09:30;19.50;1.00
27439;DHT22;14887;51.252;7.470;2023-06-22T04:11:55;19.50;1.00
27439;DHT22;14887;51.252;7.470;2023-06-22T04:14:21;19.50;1.00
27439;DHT22;14887;51.252;7.470;2023-06-22T04:16:46;19.50;99.90
27439;DHT22;14887;51.252;7.470;2023-06-22T04:19:12;19.50;1.00
27439;DHT22;14887;51.252;7.470;2023-06-22T04:21:42;19.50;1.00
27439;DHT22;14887;51.252;7.470;2023-06-22T04:24:10;19.40;1.00
27439;DHT22;14887;51.252;7.470;2023-06-22T04:26:35;19.40;99.90
27439;DHT22;14887;51.252;7.470;2023-06-22T04:29:05;19.20;1.00
27439;DHT22;14887;51.252;7.470;2023-06-22T04:31:34;19.20;99.90
27439;DHT22;14887;51.252;7.470;2023-06-22T04:34:03;19.10;99.90
27439;DHT22;14887;51.252;7.470;2023-06-22T04:36:35;19.00;99.90
27439;DHT22;14887;51.252;7.470;2023-06-22T04:39:09;19.00;1.00
27439;DHT22;14887;51.252;7.470;2023-06-22T04:41:39;19.10;99.90
27439;DHT22;14887;51.252;7.470;2023-06-22T04:46:34;19.20;1.00
27439;DHT22;14887;51.252;7.470;2023-06-22T04:49:09;19.20;1.00
27439;DHT22;14887;51.252;7.470;2023-06-22T04:51:42;19.20;99.90
27439;DHT22;14887;51.252;7.470;2023-06-22T04:54:08;19.30;99.90
27439;DHT22;14887;51.252;7.470;2023-06-22T04:56:34;19.40;1.00
27439;DHT22;14887;51.252;7.470;2023-06-22T04:59:00;19.50;1.00
27439;DHT22;14887;51.252;7.470;2023-06-22T05:01:27;19.50;1.00
27439;DHT22;14887;51.252;7.470;2023-06-22T05:03:52;19.50;88.00
27439;DHT22;14887;51.252;7.470;2023-06-22T05:06:21;19.50;99.90
27439;DHT22;14887;51.252;7.470;2023-06-22T05:08:47;19.60;1.00
27439;DHT22;14887;51.252;7.470;2023-06-22T05:11:12;19.60;99.90
27439;DHT22;14887;51.252;7.470;2023-06-22T05:13:38;19.70;1.00
27439;DHT22;14887;51.252;7.470;2023-06-22T05:16:04;19.70;1.00
27439;DHT22;14887;51.252;7.470;2023-06-22T05:18:31;19.80;1.00
27439;DHT22;14887;51.252;7.470;2023-06-22T05:20:58;19.70;99.90
27439;DHT22;14887;51.252;7.470;2023-06-22T05:23:24;19.80;95.90
27439;DHT22;14887;51.252;7.470;2023-06-22T05:25:50;19.80;99.90
27439;DHT22;14887;51.252;7.470;2023-06-22T05:28:16;19.80;99.90
27439;DHT22;14887;51.252;7.470;2023-06-22T05:30:41;19.90;1.00
27439;DHT22;14887;51.252;7.470;2023-06-22T05:33:07;20.00;1.00
27439;DHT22;14887;51.252;7.470;2023-06-22T05:35:32;20.10;1.00
27439;DHT22;14887;51.252;7.470;2023-06-22T05:37:58;20.10;99.90
27439;DHT22;14887;51.252;7.470;2023-06-22T05:40:23;20.10;99.90
27439;DHT22;14887;51.252;7.470;2023-06-22T05:42:49;20.10;1.00
27439;DHT22;14887;51.252;7.470;2023-06-22T05:45:14;20.00;1.00
27439;DHT22;14887;51.252;7.470;2023-06-22T05:47:40;19.90;1.00
27439;DHT22;14887;51.252;7.470;2023-06-22T05:50:06;19.90;1.00
27439;DHT22;14887;51.252;7.470;2023-06-22T05:52:34;19.80;1.00
27439;DHT22;14887;51.252;7.470;2023-06-22T05:54:59;19.70;1.00
27439;DHT22;14887;51.252;7.470;2023-06-22T05:57:25;19.60;3.90
27439;DHT22;14887;51.252;7.470;2023-06-22T05:59:50;19.50;57.20
27439;DHT22;14887;51.252;7.470;2023-06-22T06:02:17;19.60;66.90
27439;DHT22;14887;51.252;7.470;2023-06-22T06:04:42;19.60;62.60
27439;DHT22;14887;51.252;7.470;2023-06-22T06:07:07;19.60;86.40
27439;DHT22;14887;51.252;7.470;2023-06-22T06:09:33;19.60;98.00
27439;DHT22;14887;51.252;7.470;2023-06-22T06:11:59;19.60;96.80
27439;DHT22;14887;51.252;7.470;2023-06-22T06:14:24;19.70;97.90
27439;DHT22;14887;51.252;7.470;2023-06-22T06:16:50;19.80;99.90
27439;DHT22;14887;51.252;7.470;2023-06-22T06:19:15;19.80;99.60
27439;DHT22;14887;51.252;7.470;2023-06-22T06:21:41;19.80;52.60
27439;DHT22;14887;51.252;7.470;2023-06-22T06:24:06;20.00;99.90
27439;DHT22;14887;51.252;7.470;2023-06-22T06:26:32;20.10;55.80
27439;DHT22;14887;51.252;7.470;2023-06-22T06:29:00;20.30;40.70
27439;DHT22;14887;51.252;7.470;2023-06-22T06:31:25;20.50;75.70
27439;DHT22;14887;51.252;7.470;2023-06-22T06:33:54;20.80;29.30
27439;DHT22;14887;51.252;7.470;2023-06-22T06:36:20;21.00;1.00
27439;DHT22;14887;51.252;7.470;2023-06-22T06:38:45;21.30;1.00
27439;DHT22;14887;51.252;7.470;2023-06-22T06:41:13;21.40;1.00
27439;DHT22;14887;51.252;7.470;2023-06-22T06:43:39;21.70;1.00
27439;DHT22;14887;51.252;7.470;2023-06-22T06:46:04;21.70;99.90
27439;DHT22;14887;51.252;7.470;2023-06-22T06:48:30;21.90;1.00
27439;DHT22;14887;51.252;7.470;2023-06-22T06:50:56;22.20;96.40
27439;DHT22;14887;51.252;7.470;2023-06-22T06:53:21;23.10;99.90
27439;DHT22;14887;51.252;7.470;2023-06-22T06:55:47;24.30;99.90
27439;DHT22;14887;51.252;7.470;2023-06-22T06:58:12;25.30;99.90
27439;DHT22;14887;51.252;7.470;2023-06-22T07:00:39;25.50;99.90
27439;DHT22;14887;51.252;7.470;2023-06-22T07:03:05;25.90;1.00
27439;DHT22;14887;51.252;7.470;2023-06-22T07:05:32;26.20;1.00
27439;DHT22;14887;51.252;7.470;2023-06-22T07:07:57;26.30;99.90
27439;DHT22;14887;51.252;7.470;2023-06-22T07:10:23;25.60;1.00
27439;DHT22;14887;51.252;7.470;2023-06-22T07:12:48;24.90;99.90
27439;DHT22;14887;51.252;7.470;2023-06-22T07:15:14;24.20;93.30
27439;DHT22;14887;51.252;7.470;2023-06-22T07:17:39;23.80;99.90
27439;DHT22;14887;51.252;7.470;2023-06-22T07:20:06;23.70;99.90
27439;DHT22;14887;51.252;7.470;2023-06-22T07:22:43;23.50;1.00
27439;DHT22;14887;51.252;7.470;2023-06-22T07:25:12;23.80;1.00
27439;DHT22;14887;51.252;7.470;2023-06-22T07:27:44;23.90;1.00
27439;DHT22;14887;51.252;7.470;2023-06-22T07:30:11;24.20;1.00
27439;DHT22;14887;51.252;7.470;2023-06-22T07:32:37;24.20;99.90
27439;DHT22;14887;51.252;7.470;2023-06-22T07:35:02;24.40;99.90
27439;DHT22;14887;51.252;7.470;2023-06-22T07:37:29;24.90;1.00
27439;DHT22;14887;51.252;7.470;2023-06-22T07:39:58;25.90;1.00
27439;DHT22;14887;51.252;7.470;2023-06-22T07:42:27;27.60;99.90
27439;DHT22;14887;51.252;7.470;2023-06-22T07:44:53;28.90;1.00
27439;DHT22;14887;51.252;7.470;2023-06-22T07:47:18;29.70;1.00
27439;DHT22;14887;51.252;7.470;2023-06-22T07:49:48;30.50;99.90
27439;DHT22;14887;51.252;7.470;2023-06-22T07:52:13;31.40;99.90
27439;DHT22;14887;51.252;7.470;2023-06-22T07:54:39;31.50;99.90
27439;DHT22;14887;51.252;7.470;2023-06-22T07:57:05;31.40;99.90
27439;DHT22;14887;51.252;7.470;2023-06-22T07:59:31;31.50;99.90
27439;DHT22;14887;51.252;7.470;2023-06-22T08:01:57;31.10;99.90
27439;DHT22;14887;51.252;7.470;2023-06-22T08:04:23;29.80;99.90
27439;DHT22;14887;51.252;7.470;2023-06-22T08:06:48;29.30;99.90
27439;DHT22;14887;51.252;7.470;2023-06-22T08:09:14;28.80;99.90
27439;DHT22;14887;51.252;7.470;2023-06-22T08:11:40;29.10;1.00
27439;DHT22;14887;51.252;7.470;2023-06-22T08:14:06;29.60;99.90
27439;DHT22;14887;51.252;7.470;2023-06-22T08:16:31;29.70;99.90
27439;DHT22;14887;51.252;7.470;2023-06-22T08:18:57;29.80;99.90
27439;DHT22;14887;51.252;7.470;2023-06-22T08:21:22;29.40;99.90
27439;DHT22;14887;51.252;7.470;2023-06-22T08:23:48;29.60;99.90
27439;DHT22;14887;51.252;7.470;2023-06-22T08:26:14;30.60;99.90
27439;DHT22;14887;51.252;7.470;2023-06-22T08:28:40;31.60;99.90
27439;DHT22;14887;51.252;7.470;2023-06-22T08:31:05;32.30;99.90
27439;DHT22;14887;51.252;7.470;2023-06-22T08:33:31;33.40;99.90
27439;DHT22;14887;51.252;7.470;2023-06-22T08:35:58;34.10;99.90
27439;DHT22;14887;51.252;7.470;2023-06-22T08:38:24;34.50;99.90
27439;DHT22;14887;51.252;7.470;2023-06-22T08:40:50;34.40;99.90
27439;DHT22;14887;51.252;7.470;2023-06-22T08:43:15;35.10;99.90
27439;DHT22;14887;51.252;7.470;2023-06-22T08:45:41;35.30;99.90
27439;DHT22;14887;51.252;7.470;2023-06-22T08:48:06;36.10;99.90
27439;DHT22;14887;51.252;7.470;2023-06-22T08:50:32;35.80;99.90
27439;DHT22;14887;51.252;7.470;2023-06-22T08:52:57;35.80;99.90
27439;DHT22;14887;51.252;7.470;2023-06-22T08:55:23;35.60;99.90
27439;DHT22;14887;51.252;7.470;2023-06-22T08:57:49;35.10;99.90
27439;DHT22;14887;51.252;7.470;2023-06-22T09:00:15;34.60;99.90
27439;DHT22;14887;51.252;7.470;2023-06-22T09:02:43;34.80;99.90
27439;DHT22;14887;51.252;7.470;2023-06-22T09:05:09;35.10;99.90
27439;DHT22;14887;51.252;7.470;2023-06-22T09:07:35;34.80;99.90
27439;DHT22;14887;51.252;7.470;2023-06-22T09:10:00;35.10;99.90
27439;DHT22;14887;51.252;7.470;2023-06-22T09:12:26;35.30;99.90
27439;DHT22;14887;51.252;7.470;2023-06-22T09:14:53;35.70;99.90
27439;DHT22;14887;51.252;7.470;2023-06-22T09:17:18;34.80;99.90
27439;DHT22;14887;51.252;7.470;2023-06-22T09:19:44;33.70;99.90
27439;DHT22;14887;51.252;7.470;2023-06-22T09:22:10;33.40;99.90
27439;DHT22;14887;51.252;7.470;2023-06-22T09:24:35;33.40;99.90
27439;DHT22;14887;51.252;7.470;2023-06-22T09:27:01;33.20;99.90
27439;DHT22;14887;51.252;7.470;2023-06-22T09:29:27;33.50;99.90
27439;DHT22;14887;51.252;7.470;2023-06-22T09:31:53;34.20;99.90
27439;DHT22;14887;51.252;7.470;2023-06-22T09:34:21;33.60;99.90
27439;DHT22;14887;51.252;7.470;2023-06-22T09:36:47;32.90;99.90
27439;DHT22;14887;51.252;7.470;2023-06-22T09:39:13;32.30;99.90
27439;DHT22;14887;51.252;7.470;2023-06-22T09:41:38;31.60;99.90
27439;DHT22;14887;51.252;7.470;2023-06-22T09:44:04;30.90;99.90
27439;DHT22;14887;51.252;7.470;2023-06-22T09:46:30;30.10;99.90
27439;DHT22;14887;51.252;7.470;2023-06-22T09:48:55;29.80;99.90
27439;DHT22;14887;51.252;7.470;2023-06-22T09:51:21;29.60;99.90
27439;DHT22;14887;51.252;7.470;2023-06-22T09:53:52;29.20;99.90
27439;DHT22;14887;51.252;7.470;2023-06-22T09:56:19;28.50;99.90
27439;DHT22;14887;51.252;7.470;2023-06-22T09:58:46;28.30;99.90
27439;DHT22;14887;51.252;7.470;2023-06-22T10:01:12;27.90;99.90
27439;DHT22;14887;51.252;7.470;2023-06-22T10:03:39;27.80;99.90
27439;DHT22;14887;51.252;7.470;2023-06-22T10:06:06;27.70;99.90
27439;DHT22;14887;51.252;7.470;2023-06-22T10:08:31;27.70;99.90
27439;DHT22;14887;51.252;7.470;2023-06-22T10:10:57;27.70;99.90
27439;DHT22;14887;51.252;7.470;2023-06-22T10:13:22;27.70;1.00
27439;DHT22;14887;51.252;7.470;2023-06-22T10:15:48;28.10;1.00
27439;DHT22;14887;51.252;7.470;2023-06-22T10:18:17;28.20;1.00
27439;DHT22;14887;51.252;7.470;2023-06-22T10:20:43;28.50;1.00
27439;DHT22;14887;51.252;7.470;2023-06-22T10:23:09;28.90;1.00
27439;DHT22;14887;51.252;7.470;2023-06-22T10:25:35;28.80;1.00
27439;DHT22;14887;51.252;7.470;2023-06-22T10:28:00;28.50;1.00
27439;DHT22;14887;51.252;7.470;2023-06-22T10:30:26;28.10;1.00
27439;DHT22;14887;51.252;7.470;2023-06-22T10:32:51;27.90;1.00
27439;DHT22;14887;51.252;7.470;2023-06-22T10:35:17;27.40;1.00
27439;DHT22;14887;51.252;7.470;2023-06-22T10:37:46;27.30;93.70
27439;DHT22;14887;51.252;7.470;2023-06-22T10:40:13;26.90;47.90
27439;DHT22;14887;51.252;7.470;2023-06-22T10:42:39;26.60;99.90
27439;DHT22;14887;51.252;7.470;2023-06-22T10:45:05;26.40;99.90
27439;DHT22;14887;51.252;7.470;2023-06-22T10:47:31;26.30;1.00
27439;DHT22;14887;51.252;7.470;2023-06-22T10:49:56;26.40;1.00
27439;DHT22;14887;51.252;7.470;2023-06-22T10:52:22;26.40;1.00
27439;DHT22;14887;51.252;7.470;2023-06-22T10:54:47;26.30;1.00
27439;DHT22;14887;51.252;7.470;2023-06-22T10:57:13;26.40;1.00
27439;DHT22;14887;51.252;7.470;2023-06-22T10:59:39;26.30;1.00
27439;DHT22;14887;51.252;7.470;2023-06-22T11:02:05;26.10;1.00
27439;DHT22;14887;51.252;7.470;2023-06-22T11:04:30;25.90;1.00
27439;DHT22;14887;51.252;7.470;2023-06-22T11:06:56;25.80;1.00
27439;DHT22;14887;51.252;7.470;2023-06-22T11:09:22;25.60;99.90
27439;DHT22;14887;51.252;7.470;2023-06-22T11:11:48;25.20;99.90
27439;DHT22;14887;51.252;7.470;2023-06-22T11:14:14;24.80;99.90
27439;DHT22;14887;51.252;7.470;2023-06-22T11:16:40;24.50;1.00
27439;DHT22;14887;51.252;7.470;2023-06-22T11:19:06;24.20;1.00
27439;DHT22;14887;51.252;7.470;2023-06-22T11:21:32;23.80;16.40
27439;DHT22;14887;51.252;7.470;2023-06-22T11:23:58;23.50;99.90
27439;DHT22;14887;51.252;7.470;2023-06-22T11:26:24;23.20;99.90
27439;DHT22;14887;51.252;7.470;2023-06-22T11:28:50;22.80;99.90
27439;DHT22;14887;51.252;7.470;2023-06-22T11:31:15;22.60;99.90
27439;DHT22;14887;51.252;7.470;2023-06-22T11:33:41;22.30;99.90
27439;DHT22;14887;51.252;7.470;2023-06-22T11:36:07;22.20;99.90
27439;DHT22;14887;51.252;7.470;2023-06-22T11:38:33;22.10;99.90
27439;DHT22;14887;51.252;7.470;2023-06-22T11:40:58;22.00;99.90
27439;DHT22;14887;51.252;7.470;2023-06-22T11:43:25;22.00;99.90
27439;DHT22;14887;51.252;7.470;2023-06-22T11:45:50;21.90;99.90
27439;DHT22;14887;51.252;7.470;2023-06-22T11:48:16;21.70;99.90
27439;DHT22;14887;51.252;7.470;2023-06-22T11:50:41;21.60;99.90
27439;DHT22;14887;51.252;7.470;2023-06-22T11:53:07;21.40;99.90
27439;DHT22;14887;51.252;7.470;2023-06-22T11:55:32;21.20;99.90
27439;DHT22;14887;51.252;7.470;2023-06-22T11:57:58;21.10;99.90
27439;DHT22;14887;51.252;7.470;2023-06-22T12:00:26;21.00;99.90
27439;DHT22;14887;51.252;7.470;2023-06-22T12:02:52;21.00;99.90
27439;DHT22;14887;51.252;7.470;2023-06-22T12:05:21;20.90;99.90
27439;DHT22;14887;51.252;7.470;2023-06-22T12:07:48;20.70;99.90
27439;DHT22;14887;51.252;7.470;2023-06-22T12:10:14;20.50;99.90
27439;DHT22;14887;51.252;7.470;2023-06-22T12:12:40;19.90;99.90
27439;DHT22;14887;51.252;7.470;2023-06-22T12:15:07;19.10;99.90
27439;DHT22;14887;51.252;7.470;2023-06-22T12:17:33;18.50;99.90
27439;DHT22;14887;51.252;7.470;2023-06-22T12:19:59;18.50;99.90
27439;DHT22;14887;51.252;7.470;2023-06-22T12:22:24;18.80;99.90
27439;DHT22;14887;51.252;7.470;2023-06-22T12:24:50;19.00;99.90
27439;DHT22;14887;51.252;7.470;2023-06-22T12:27:18;19.00;99.90
27439;DHT22;14887;51.252;7.470;2023-06-22T12:29:45;19.10;99.90
27439;DHT22;14887;51.252;7.470;2023-06-22T12:32:11;18.80;99.90
27439;DHT22;14887;51.252;7.470;2023-06-22T12:34:38;19.10;99.90
27439;DHT22;14887;51.252;7.470;2023-06-22T12:37:04;19.30;99.90
27439;DHT22;14887;51.252;7.470;2023-06-22T12:39:31;19.60;99.90
27439;DHT22;14887;51.252;7.470;2023-06-22T12:41:57;19.60;99.90
27439;DHT22;14887;51.252;7.470;2023-06-22T12:44:22;19.60;99.90
27439;DHT22;14887;51.252;7.470;2023-06-22T12:46:48;19.70;99.90
27439;DHT22;14887;51.252;7.470;2023-06-22T12:49:14;19.80;99.90
27439;DHT22;14887;51.252;7.470;2023-06-22T12:51:40;19.90;99.90
27439;DHT22;14887;51.252;7.470;2023-06-22T12:54:09;20.00;99.90
27439;DHT22;14887;51.252;7.470;2023-06-22T12:56:35;20.20;99.90
27439;DHT22;14887;51.252;7.470;2023-06-22T12:59:01;20.40;99.90
27439;DHT22;14887;51.252;7.470;2023-06-22T13:01:27;20.60;99.90
27439;DHT22;14887;51.252;7.470;2023-06-22T13:03:53;20.80;99.90
27439;DHT22;14887;51.252;7.470;2023-06-22T13:06:19;20.70;99.90
27439;DHT22;14887;51.252;7.470;2023-06-22T13:08:45;20.70;99.90
27439;DHT22;14887;51.252;7.470;2023-06-22T13:11:10;20.40;75.20
27439;DHT22;14887;51.252;7.470;2023-06-22T13:13:36;20.50;99.90
27439;DHT22;14887;51.252;7.470;2023-06-22T13:16:01;20.60;99.90
27439;DHT22;14887;51.252;7.470;2023-06-22T13:18:27;20.80;99.90
27439;DHT22;14887;51.252;7.470;2023-06-22T13:20:52;21.00;46.50
27439;DHT22;14887;51.252;7.470;2023-06-22T13:23:20;21.80;99.90
27439;DHT22;14887;51.252;7.470;2023-06-22T13:25:47;23.10;1.00
27439;DHT22;14887;51.252;7.470;2023-06-22T13:28:21;24.30;1.00
27439;DHT22;14887;51.252;7.470;2023-06-22T13:30:47;25.50;99.90
27439;DHT22;14887;51.252;7.470;2023-06-22T13:33:16;26.80;99.90
27439;DHT22;14887;51.252;7.470;2023-06-22T13:35:42;27.20;1.00
27439;DHT22;14887;51.252;7.470;2023-06-22T13:38:09;27.00;99.90
27439;DHT22;14887;51.252;7.470;2023-06-22T13:40:35;27.30;1.00
27439;DHT22;14887;51.252;7.470;2023-06-22T13:43:00;27.40;76.50
27439;DHT22;14887;51.252;7.470;2023-06-22T13:45:26;27.50;1.00
27439;DHT22;14887;51.252;7.470;2023-06-22T13:47:52;27.50;99.90
27439;DHT22;14887;51.252;7.470;2023-06-22T13:50:18;27.70;1.00
27439;DHT22;14887;51.252;7.470;2023-06-22T13:52:44;27.40;99.90
27439;DHT22;14887;51.252;7.470;2023-06-22T13:55:10;27.80;99.90
27439;DHT22;14887;51.252;7.470;2023-06-22T13:57:36;27.80;99.90
27439;DHT22;14887;51.252;7.470;2023-06-22T14:00:03;28.10;99.90
27439;DHT22;14887;51.252;7.470;2023-06-22T14:02:31;28.20;1.00
27439;DHT22;14887;51.252;7.470;2023-06-22T14:04:57;28.80;99.90
27439;DHT22;14887;51.252;7.470;2023-06-22T14:07:23;28.80;99.90
27439;DHT22;14887;51.252;7.470;2023-06-22T14:09:52;29.00;1.00
27439;DHT22;14887;51.252;7.470;2023-06-22T14:12:18;28.80;99.90
27439;DHT22;14887;51.252;7.470;2023-06-22T14:14:44;28.50;1.00
27439;DHT22;14887;51.252;7.470;2023-06-22T14:17:10;28.50;99.90
27439;DHT22;14887;51.252;7.470;2023-06-22T14:19:36;28.80;99.90
27439;DHT22;14887;51.252;7.470;2023-06-22T14:22:02;28.20;99.90
27439;DHT22;14887;51.252;7.470;2023-06-22T14:24:28;27.80;1.00
27439;DHT22;14887;51.252;7.470;2023-06-22T14:26:54;26.70;1.00
27439;DHT22;14887;51.252;7.470;2023-06-22T14:29:21;25.60;1.00
27439;DHT22;14887;51.252;7.470;2023-06-22T14:31:47;25.30;1.00
27439;DHT22;14887;51.252;7.470;2023-06-22T14:34:14;25.30;99.90
27439;DHT22;14887;51.252;7.470;2023-06-22T14:36:40;25.60;99.90
27439;DHT22;14887;51.252;7.470;2023-06-22T14:39:05;26.70;99.90
27439;DHT22;14887;51.252;7.470;2023-06-22T14:41:31;27.60;23.20
27439;DHT22;14887;51.252;7.470;2023-06-22T14:43:57;28.30;99.90
27439;DHT22;14887;51.252;7.470;2023-06-22T14:46:22;29.10;1.00
27439;DHT22;14887;51.252;7.470;2023-06-22T14:48:48;30.10;99.90
27439;DHT22;14887;51.252;7.470;2023-06-22T14:51:14;30.20;99.90
27439;DHT22;14887;51.252;7.470;2023-06-22T14:53:39;29.30;99.90
27439;DHT22;14887;51.252;7.470;2023-06-22T14:56:05;27.60;99.90
27439;DHT22;14887;51.252;7.470;2023-06-22T14:58:32;25.90;1.00
27439;DHT22;14887;51.252;7.470;2023-06-22T15:01:04;25.40;1.00
27439;DHT22;14887;51.252;7.470;2023-06-22T15:03:33;24.40;99.90
27439;DHT22;14887;51.252;7.470;2023-06-22T15:06:01;23.80;1.00
27439;DHT22;14887;51.252;7.470;2023-06-22T15:08:27;22.90;1.00
27439;DHT22;14887;51.252;7.470;2023-06-22T15:10:53;22.60;70.30
27439;DHT22;14887;51.252;7.470;2023-06-22T15:13:19;22.20;80.50
27439;DHT22;14887;51.252;7.470;2023-06-22T15:15:46;22.00;99.90
27439;DHT22;14887;51.252;7.470;2023-06-22T15:18:13;21.70;99.90
27439;DHT22;14887;51.252;7.470;2023-06-22T15:20:39;21.60;99.90
27439;DHT22;14887;51.252;7.470;2023-06-22T15:23:06;21.50;99.90
27439;DHT22;14887;51.252;7.470;2023-06-22T15:25:34;21.20;99.90
27439;DHT22;14887;51.252;7.470;2023-06-22T15:27:59;21.00;99.90
27439;DHT22;14887;51.252;7.470;2023-06-22T15:30:25;20.90;99.90
27439;DHT22;14887;51.252;7.470;2023-06-22T15:32:50;20.70;99.90
27439;DHT22;14887;51.252;7.470;2023-06-22T15:35:16;20.50;99.90
27439;DHT22;14887;51.252;7.470;2023-06-22T15:37:46;20.40;99.90
27439;DHT22;14887;51.252;7.470;2023-06-22T15:40:12;20.40;99.90
27439;DHT22;14887;51.252;7.470;2023-06-22T15:42:37;20.40;99.90